Rechercher aéroport 
image banner adimage banner adimage banner ad
image banner ad

5CL6 - Edward Roybal Federal Bldg

Situé à Los Angeles, United States

ICAO - 5CL6, IATA -

Données fournies par Airmate  

Information générale

Coordonnées: N34°3'10" W118°14'20"
Élévation : 646 feet MSL.
Variation magnétique : 14° East
Voir autres Aéroports à California

Données opérationnelles

Special qualification required
Heure actuelle UTC:
Heure actuelle locale:
METAR: KHHR 212233Z 27010KT 10SM CLR 28/16 A3002 RMK AO2 T02780161 $
Voir NOTAMs / SUP AIP / TFR affectant cet aéroport [VIEW]
Fréquences de communication: [VIEW]

Pistes:

Coordonnées de l'aéroport

Adresse: Los Angeles United States

Vue satellite de 5CL6